Flowerfield, Illinois
Current Conditions -  °F | °C
As of 5:51 PM on Friday 31 Oct 2014 (Local Time) from KORD Reporting Station
Overcast Overcast  
Wind Chill: 27°   Ceiling: 4500
Heat Index: 38°   Visibility: 10mi
Dew Point: 19°   Wind: 25mph
Humidity: 47%   Direction: 350°N
Pressure: 30.28"   Gusts: 37mph
Location:  41.8742°N, 88.0172°W
Report Text: KORD 312251Z 35022G32KT 10SM OVC045 03/M07 A3028 RMK AO2 PK WND 34032/2236 SLP261 T00331072
Loading
Personal Weather Stations






























Interactive Weather Map New forecast layout! Learn more

10-Day Weather Forecast

Advertisements
Track Severe Weather on mobile